sensor_id;sensor_type;location;lat;lon;timestamp;P1;durP1;ratioP1;P2;durP2;ratioP2
18188;SDS011;9219;50.396;8.546;2024-02-04T00:01:03;3.03;;;2.70;;
18188;SDS011;9219;50.396;8.546;2024-02-04T00:10:09;3.60;;;2.40;;
18188;SDS011;9219;50.396;8.546;2024-02-04T00:13:25;2.83;;;2.23;;
18188;SDS011;9219;50.396;8.546;2024-02-04T00:16:18;4.43;;;2.27;;
18188;SDS011;9219;50.396;8.546;2024-02-04T00:22:26;3.63;;;2.67;;
18188;SDS011;9219;50.396;8.546;2024-02-04T00:50:00;2.17;;;1.80;;
18188;SDS011;9219;50.396;8.546;2024-02-04T00:52:28;3.67;;;1.93;;
18188;SDS011;9219;50.396;8.546;2024-02-04T00:54:56;1.97;;;1.57;;
18188;SDS011;9219;50.396;8.546;2024-02-04T00:57:23;4.67;;;2.00;;
18188;SDS011;9219;50.396;8.546;2024-02-04T00:59:50;2.90;;;1.93;;
18188;SDS011;9219;50.396;8.546;2024-02-04T01:02:18;2.77;;;2.13;;
18188;SDS011;9219;50.396;8.546;2024-02-04T01:04:45;2.77;;;2.23;;
18188;SDS011;9219;50.396;8.546;2024-02-04T01:07:15;2.30;;;1.80;;
18188;SDS011;9219;50.396;8.546;2024-02-04T01:09:43;2.40;;;1.80;;
18188;SDS011;9219;50.396;8.546;2024-02-04T01:21:20;2.13;;;1.90;;
18188;SDS011;9219;50.396;8.546;2024-02-04T01:28:36;2.10;;;1.60;;
18188;SDS011;9219;50.396;8.546;2024-02-04T01:31:34;2.40;;;1.47;;
18188;SDS011;9219;50.396;8.546;2024-02-04T01:34:09;1.80;;;1.63;;
18188;SDS011;9219;50.396;8.546;2024-02-04T01:37:38;1.80;;;1.40;;
18188;SDS011;9219;50.396;8.546;2024-02-04T01:40:29;1.73;;;1.40;;
18188;SDS011;9219;50.396;8.546;2024-02-04T01:43:20;2.13;;;1.60;;
18188;SDS011;9219;50.396;8.546;2024-02-04T01:46:08;1.83;;;1.40;;
18188;SDS011;9219;50.396;8.546;2024-02-04T01:49:01;1.97;;;1.80;;
18188;SDS011;9219;50.396;8.546;2024-02-04T01:55:21;2.20;;;1.80;;
18188;SDS011;9219;50.396;8.546;2024-02-04T01:57:59;1.13;;;1.03;;
18188;SDS011;9219;50.396;8.546;2024-02-04T02:01:24;2.10;;;1.50;;
18188;SDS011;9219;50.396;8.546;2024-02-04T02:05:04;1.73;;;1.47;;
18188;SDS011;9219;50.396;8.546;2024-02-04T02:51:11;0.67;;;0.67;;
18188;SDS011;9219;50.396;8.546;2024-02-04T02:54:24;0.70;;;0.70;;
18188;SDS011;9219;50.396;8.546;2024-02-04T03:01:07;0.50;;;0.50;;
18188;SDS011;9219;50.396;8.546;2024-02-04T03:04:17;1.67;;;0.83;;
18188;SDS011;9219;50.396;8.546;2024-02-04T03:18:32;0.57;;;0.53;;
18188;SDS011;9219;50.396;8.546;2024-02-04T03:21:55;0.63;;;0.63;;
18188;SDS011;9219;50.396;8.546;2024-02-04T03:25:16;0.77;;;0.70;;
18188;SDS011;9219;50.396;8.546;2024-02-04T03:45:47;2.23;;;0.70;;
18188;SDS011;9219;50.396;8.546;2024-02-04T04:27:32;1.47;;;1.20;;
18188;SDS011;9219;50.396;8.546;2024-02-04T04:30:02;1.60;;;1.20;;
18188;SDS011;9219;50.396;8.546;2024-02-04T04:32:30;2.03;;;1.50;;
18188;SDS011;9219;50.396;8.546;2024-02-04T04:34:59;1.50;;;1.00;;
18188;SDS011;9219;50.396;8.546;2024-02-04T04:37:27;2.07;;;1.63;;
18188;SDS011;9219;50.396;8.546;2024-02-04T04:39:59;2.00;;;1.23;;
18188;SDS011;9219;50.396;8.546;2024-02-04T04:42:27;1.87;;;1.37;;
18188;SDS011;9219;50.396;8.546;2024-02-04T04:55:46;1.23;;;0.97;;
18188;SDS011;9219;50.396;8.546;2024-02-04T04:58:13;1.80;;;1.20;;
18188;SDS011;9219;50.396;8.546;2024-02-04T05:00:41;1.10;;;1.00;;
18188;SDS011;9219;50.396;8.546;2024-02-04T05:03:08;1.03;;;0.97;;
18188;SDS011;9219;50.396;8.546;2024-02-04T05:05:38;1.67;;;1.57;;
18188;SDS011;9219;50.396;8.546;2024-02-04T05:08:06;1.93;;;1.60;;
18188;SDS011;9219;50.396;8.546;2024-02-04T05:10:34;1.07;;;0.83;;
18188;SDS011;9219;50.396;8.546;2024-02-04T05:17:36;3.73;;;1.27;;
18188;SDS011;9219;50.396;8.546;2024-02-04T05:20:21;1.77;;;1.33;;
18188;SDS011;9219;50.396;8.546;2024-02-04T05:22:49;1.30;;;1.13;;
18188;SDS011;9219;50.396;8.546;2024-02-04T05:25:18;2.00;;;1.40;;
18188;SDS011;9219;50.396;8.546;2024-02-04T05:27:54;15.63;;;2.17;;
18188;SDS011;9219;50.396;8.546;2024-02-04T05:30:44;1.97;;;1.50;;
18188;SDS011;9219;50.396;8.546;2024-02-04T05:33:15;2.27;;;1.33;;
18188;SDS011;9219;50.396;8.546;2024-02-04T05:36:02;1.47;;;1.17;;
18188;SDS011;9219;50.396;8.546;2024-02-04T05:38:51;1.73;;;1.27;;
18188;SDS011;9219;50.396;8.546;2024-02-04T05:41:21;2.40;;;1.20;;
18188;SDS011;9219;50.396;8.546;2024-02-04T05:44:06;2.30;;;1.27;;
18188;SDS011;9219;50.396;8.546;2024-02-04T05:46:35;1.47;;;1.10;;
18188;SDS011;9219;50.396;8.546;2024-02-04T05:49:03;1.80;;;1.57;;
18188;SDS011;9219;50.396;8.546;2024-02-04T05:51:32;1.40;;;1.30;;
18188;SDS011;9219;50.396;8.546;2024-02-04T05:54:07;1.90;;;1.47;;
18188;SDS011;9219;50.396;8.546;2024-02-04T05:56:35;4.77;;;1.63;;
18188;SDS011;9219;50.396;8.546;2024-02-04T05:59:03;1.10;;;1.00;;
18188;SDS011;9219;50.396;8.546;2024-02-04T06:16:01;1.20;;;0.90;;
18188;SDS011;9219;50.396;8.546;2024-02-04T06:19:07;1.20;;;0.90;;
18188;SDS011;9219;50.396;8.546;2024-02-04T06:21:39;1.10;;;1.00;;
18188;SDS011;9219;50.396;8.546;2024-02-04T06:24:11;0.97;;;0.73;;
18188;SDS011;9219;50.396;8.546;2024-02-04T06:26:52;1.00;;;0.90;;
18188;SDS011;9219;50.396;8.546;2024-02-04T06:29:22;1.40;;;0.90;;
18188;SDS011;9219;50.396;8.546;2024-02-04T06:35:29;1.67;;;1.27;;
18188;SDS011;9219;50.396;8.546;2024-02-04T06:56:19;0.60;;;0.60;;
18188;SDS011;9219;50.396;8.546;2024-02-04T06:58:46;2.33;;;1.10;;
18188;SDS011;9219;50.396;8.546;2024-02-04T07:01:14;1.07;;;0.80;;
18188;SDS011;9219;50.396;8.546;2024-02-04T07:03:41;0.90;;;0.90;;
18188;SDS011;9219;50.396;8.546;2024-02-04T07:06:11;1.67;;;0.93;;
18188;SDS011;9219;50.396;8.546;2024-02-04T07:08:38;1.17;;;0.90;;
18188;SDS011;9219;50.396;8.546;2024-02-04T07:11:05;1.93;;;1.10;;
18188;SDS011;9219;50.396;8.546;2024-02-04T07:18:24;1.53;;;1.10;;
18188;SDS011;9219;50.396;8.546;2024-02-04T07:20:51;1.20;;;1.10;;
18188;SDS011;9219;50.396;8.546;2024-02-04T07:23:18;0.93;;;0.87;;
18188;SDS011;9219;50.396;8.546;2024-02-04T07:25:46;1.20;;;1.00;;
18188;SDS011;9219;50.396;8.546;2024-02-04T07:28:14;1.07;;;0.87;;
18188;SDS011;9219;50.396;8.546;2024-02-04T07:30:41;0.50;;;0.50;;
18188;SDS011;9219;50.396;8.546;2024-02-04T07:33:08;2.50;;;1.40;;
18188;SDS011;9219;50.396;8.546;2024-02-04T07:40:09;1.53;;;1.07;;
18188;SDS011;9219;50.396;8.546;2024-02-04T07:42:37;0.97;;;0.90;;
18188;SDS011;9219;50.396;8.546;2024-02-04T07:45:04;0.97;;;0.80;;
18188;SDS011;9219;50.396;8.546;2024-02-04T07:47:34;1.17;;;1.07;;
18188;SDS011;9219;50.396;8.546;2024-02-04T07:50:02;0.60;;;0.60;;
18188;SDS011;9219;50.396;8.546;2024-02-04T07:52:30;0.87;;;0.70;;
18188;SDS011;9219;50.396;8.546;2024-02-04T07:54:58;0.63;;;0.63;;
18188;SDS011;9219;50.396;8.546;2024-02-04T08:01:48;0.67;;;0.60;;
18188;SDS011;9219;50.396;8.546;2024-02-04T08:04:17;1.00;;;0.70;;
18188;SDS011;9219;50.396;8.546;2024-02-04T08:06:44;0.77;;;0.77;;
18188;SDS011;9219;50.396;8.546;2024-02-04T08:09:11;0.60;;;0.60;;
18188;SDS011;9219;50.396;8.546;2024-02-04T08:11:40;1.00;;;0.90;;
18188;SDS011;9219;50.396;8.546;2024-02-04T08:14:09;0.70;;;0.70;;
18188;SDS011;9219;50.396;8.546;2024-02-04T08:16:36;0.77;;;0.70;;
18188;SDS011;9219;50.396;8.546;2024-02-04T08:34:16;0.40;;;0.40;;
18188;SDS011;9219;50.396;8.546;2024-02-04T08:36:45;0.50;;;0.50;;
18188;SDS011;9219;50.396;8.546;2024-02-04T08:39:13;0.97;;;0.60;;
18188;SDS011;9219;50.396;8.546;2024-02-04T08:41:41;0.60;;;0.40;;
18188;SDS011;9219;50.396;8.546;2024-02-04T08:44:08;0.30;;;0.30;;
18188;SDS011;9219;50.396;8.546;2024-02-04T08:46:43;0.33;;;0.33;;
18188;SDS011;9219;50.396;8.546;2024-02-04T08:49:11;1.33;;;0.60;;
18188;SDS011;9219;50.396;8.546;2024-02-04T08:56:07;0.47;;;0.37;;
18188;SDS011;9219;50.396;8.546;2024-02-04T08:58:35;0.83;;;0.37;;
18188;SDS011;9219;50.396;8.546;2024-02-04T09:01:03;0.30;;;0.30;;
18188;SDS011;9219;50.396;8.546;2024-02-04T09:03:31;2.93;;;0.40;;
18188;SDS011;9219;50.396;8.546;2024-02-04T09:06:10;0.70;;;0.60;;
18188;SDS011;9219;50.396;8.546;2024-02-04T09:08:37;0.23;;;0.23;;
18188;SDS011;9219;50.396;8.546;2024-02-04T09:11:05;0.20;;;0.20;;
18188;SDS011;9219;50.396;8.546;2024-02-04T09:16:17;0.30;;;0.30;;
18188;SDS011;9219;50.396;8.546;2024-02-04T09:18:44;0.50;;;0.50;;
18188;SDS011;9219;50.396;8.546;2024-02-04T09:21:14;0.40;;;0.40;;
18188;SDS011;9219;50.396;8.546;2024-02-04T09:23:42;0.43;;;0.43;;
18188;SDS011;9219;50.396;8.546;2024-02-04T09:26:09;0.37;;;0.37;;
18188;SDS011;9219;50.396;8.546;2024-02-04T09:28:36;1.07;;;0.40;;
18188;SDS011;9219;50.396;8.546;2024-02-04T09:31:04;0.20;;;0.20;;
18188;SDS011;9219;50.396;8.546;2024-02-04T09:49:41;0.40;;;0.40;;
18188;SDS011;9219;50.396;8.546;2024-02-04T10:04:32;0.40;;;0.40;;
18188;SDS011;9219;50.396;8.546;2024-02-04T10:08:07;0.37;;;0.37;;
18188;SDS011;9219;50.396;8.546;2024-02-04T10:18:40;0.83;;;0.40;;
18188;SDS011;9219;50.396;8.546;2024-02-04T10:24:14;0.40;;;0.40;;
18188;SDS011;9219;50.396;8.546;2024-02-04T10:26:56;0.60;;;0.50;;
18188;SDS011;9219;50.396;8.546;2024-02-04T10:34:28;0.30;;;0.30;;
18188;SDS011;9219;50.396;8.546;2024-02-04T10:40:35;0.50;;;0.50;;
18188;SDS011;9219;50.396;8.546;2024-02-04T10:43:25;1.73;;;0.50;;
18188;SDS011;9219;50.396;8.546;2024-02-04T10:46:54;0.27;;;0.27;;
18188;SDS011;9219;50.396;8.546;2024-02-04T10:49:24;0.43;;;0.43;;
18188;SDS011;9219;50.396;8.546;2024-02-04T10:51:53;0.50;;;0.40;;
18188;SDS011;9219;50.396;8.546;2024-02-04T10:54:26;0.50;;;0.50;;
18188;SDS011;9219;50.396;8.546;2024-02-04T10:56:58;0.40;;;0.40;;
18188;SDS011;9219;50.396;8.546;2024-02-04T10:59:32;0.30;;;0.30;;
18188;SDS011;9219;50.396;8.546;2024-02-04T11:02:02;0.40;;;0.40;;
18188;SDS011;9219;50.396;8.546;2024-02-04T11:09:08;2.23;;;0.40;;
18188;SDS011;9219;50.396;8.546;2024-02-04T11:11:36;0.40;;;0.40;;
18188;SDS011;9219;50.396;8.546;2024-02-04T11:14:04;0.77;;;0.70;;
18188;SDS011;9219;50.396;8.546;2024-02-04T11:16:40;0.40;;;0.40;;
18188;SDS011;9219;50.396;8.546;2024-02-04T11:19:27;0.60;;;0.43;;
18188;SDS011;9219;50.396;8.546;2024-02-04T11:30:21;0.40;;;0.40;;
18188;SDS011;9219;50.396;8.546;2024-02-04T11:32:49;0.50;;;0.50;;
18188;SDS011;9219;50.396;8.546;2024-02-04T11:35:18;0.53;;;0.50;;
18188;SDS011;9219;50.396;8.546;2024-02-04T11:37:48;0.40;;;0.40;;
18188;SDS011;9219;50.396;8.546;2024-02-04T11:40:17;0.67;;;0.43;;
18188;SDS011;9219;50.396;8.546;2024-02-04T11:42:46;0.53;;;0.47;;
18188;SDS011;9219;50.396;8.546;2024-02-04T11:45:14;1.70;;;0.67;;
18188;SDS011;9219;50.396;8.546;2024-02-04T12:21:42;0.80;;;0.60;;
18188;SDS011;9219;50.396;8.546;2024-02-04T12:24:47;0.50;;;0.50;;
18188;SDS011;9219;50.396;8.546;2024-02-04T12:32:34;0.30;;;0.30;;
18188;SDS011;9219;50.396;8.546;2024-02-04T12:35:06;0.83;;;0.50;;
18188;SDS011;9219;50.396;8.546;2024-02-04T12:38:40;0.50;;;0.50;;
18188;SDS011;9219;50.396;8.546;2024-02-04T12:42:00;0.40;;;0.40;;
18188;SDS011;9219;50.396;8.546;2024-02-04T12:46:07;0.40;;;0.40;;
18188;SDS011;9219;50.396;8.546;2024-02-04T12:48:50;0.37;;;0.37;;
18188;SDS011;9219;50.396;8.546;2024-02-04T12:52:11;0.50;;;0.50;;
18188;SDS011;9219;50.396;8.546;2024-02-04T12:55:08;0.40;;;0.40;;
18188;SDS011;9219;50.396;8.546;2024-02-04T12:58:50;0.63;;;0.40;;
18188;SDS011;9219;50.396;8.546;2024-02-04T13:01:34;0.70;;;0.40;;
18188;SDS011;9219;50.396;8.546;2024-02-04T13:12:10;0.50;;;0.47;;
18188;SDS011;9219;50.396;8.546;2024-02-04T13:15:16;0.57;;;0.57;;
18188;SDS011;9219;50.396;8.546;2024-02-04T13:45:13;0.77;;;0.70;;
18188;SDS011;9219;50.396;8.546;2024-02-04T13:47:42;0.50;;;0.50;;
18188;SDS011;9219;50.396;8.546;2024-02-04T13:50:10;0.50;;;0.50;;
18188;SDS011;9219;50.396;8.546;2024-02-04T13:52:39;0.30;;;0.30;;
18188;SDS011;9219;50.396;8.546;2024-02-04T13:55:07;1.20;;;0.50;;
18188;SDS011;9219;50.396;8.546;2024-02-04T13:57:35;1.27;;;0.60;;
18188;SDS011;9219;50.396;8.546;2024-02-04T14:00:02;0.40;;;0.40;;
18188;SDS011;9219;50.396;8.546;2024-02-04T14:05:13;0.50;;;0.50;;
18188;SDS011;9219;50.396;8.546;2024-02-04T14:07:41;0.50;;;0.50;;
18188;SDS011;9219;50.396;8.546;2024-02-04T14:10:11;0.50;;;0.50;;
18188;SDS011;9219;50.396;8.546;2024-02-04T14:12:40;2.30;;;0.70;;
18188;SDS011;9219;50.396;8.546;2024-02-04T14:15:11;0.40;;;0.40;;
18188;SDS011;9219;50.396;8.546;2024-02-04T14:17:39;0.50;;;0.50;;
18188;SDS011;9219;50.396;8.546;2024-02-04T14:20:07;1.47;;;0.50;;
18188;SDS011;9219;50.396;8.546;2024-02-04T14:35:41;1.60;;;0.83;;
18188;SDS011;9219;50.396;8.546;2024-02-04T14:38:10;0.40;;;0.40;;
18188;SDS011;9219;50.396;8.546;2024-02-04T14:40:41;0.40;;;0.30;;
18188;SDS011;9219;50.396;8.546;2024-02-04T14:43:08;0.40;;;0.40;;
18188;SDS011;9219;50.396;8.546;2024-02-04T14:45:36;0.40;;;0.40;;
18188;SDS011;9219;50.396;8.546;2024-02-04T14:48:07;0.50;;;0.40;;
18188;SDS011;9219;50.396;8.546;2024-02-04T14:50:35;0.40;;;0.40;;
18188;SDS011;9219;50.396;8.546;2024-02-04T14:53:03;0.40;;;0.40;;
18188;SDS011;9219;50.396;8.546;2024-02-04T15:00:38;0.80;;;0.60;;
18188;SDS011;9219;50.396;8.546;2024-02-04T15:03:06;1.00;;;0.53;;
18188;SDS011;9219;50.396;8.546;2024-02-04T15:05:33;0.50;;;0.50;;
18188;SDS011;9219;50.396;8.546;2024-02-04T15:08:01;0.40;;;0.40;;
18188;SDS011;9219;50.396;8.546;2024-02-04T15:10:28;1.53;;;0.50;;
18188;SDS011;9219;50.396;8.546;2024-02-04T15:12:59;0.40;;;0.40;;
18188;SDS011;9219;50.396;8.546;2024-02-04T15:15:27;0.47;;;0.47;;
18188;SDS011;9219;50.396;8.546;2024-02-04T15:22:06;0.40;;;0.40;;
18188;SDS011;9219;50.396;8.546;2024-02-04T15:24:35;0.40;;;0.40;;
18188;SDS011;9219;50.396;8.546;2024-02-04T15:27:06;0.50;;;0.50;;
18188;SDS011;9219;50.396;8.546;2024-02-04T15:29:36;0.67;;;0.67;;
18188;SDS011;9219;50.396;8.546;2024-02-04T15:32:05;0.50;;;0.50;;
18188;SDS011;9219;50.396;8.546;2024-02-04T15:34:33;0.80;;;0.67;;
18188;SDS011;9219;50.396;8.546;2024-02-04T15:37:02;0.97;;;0.60;;
18188;SDS011;9219;50.396;8.546;2024-02-04T15:42:19;0.70;;;0.70;;
18188;SDS011;9219;50.396;8.546;2024-02-04T15:44:46;0.67;;;0.60;;
18188;SDS011;9219;50.396;8.546;2024-02-04T15:47:13;0.70;;;0.70;;
18188;SDS011;9219;50.396;8.546;2024-02-04T15:49:42;2.97;;;1.10;;
18188;SDS011;9219;50.396;8.546;2024-02-04T15:52:11;0.73;;;0.60;;
18188;SDS011;9219;50.396;8.546;2024-02-04T15:54:39;1.00;;;0.80;;
18188;SDS011;9219;50.396;8.546;2024-02-04T15:57:08;0.60;;;0.60;;
18188;SDS011;9219;50.396;8.546;2024-02-04T16:04:02;1.00;;;0.90;;
18188;SDS011;9219;50.396;8.546;2024-02-04T16:06:32;0.80;;;0.80;;
18188;SDS011;9219;50.396;8.546;2024-02-04T16:09:00;0.80;;;0.80;;
18188;SDS011;9219;50.396;8.546;2024-02-04T16:11:30;0.80;;;0.80;;
18188;SDS011;9219;50.396;8.546;2024-02-04T16:14:08;1.33;;;1.13;;
18188;SDS011;9219;50.396;8.546;2024-02-04T16:16:38;0.80;;;0.80;;
18188;SDS011;9219;50.396;8.546;2024-02-04T16:19:13;0.87;;;0.87;;
18188;SDS011;9219;50.396;8.546;2024-02-04T16:25:59;1.23;;;1.10;;
18188;SDS011;9219;50.396;8.546;2024-02-04T16:28:27;1.43;;;1.00;;
18188;SDS011;9219;50.396;8.546;2024-02-04T16:30:56;0.90;;;0.70;;
18188;SDS011;9219;50.396;8.546;2024-02-04T16:33:25;1.43;;;0.83;;
18188;SDS011;9219;50.396;8.546;2024-02-04T16:35:52;3.23;;;1.20;;
18188;SDS011;9219;50.396;8.546;2024-02-04T16:38:20;1.90;;;1.27;;
18188;SDS011;9219;50.396;8.546;2024-02-04T16:40:47;1.70;;;1.60;;
18188;SDS011;9219;50.396;8.546;2024-02-04T16:47:42;3.13;;;1.10;;
18188;SDS011;9219;50.396;8.546;2024-02-04T16:59:57;1.43;;;1.33;;
18188;SDS011;9219;50.396;8.546;2024-02-04T17:02:45;1.63;;;1.00;;
18188;SDS011;9219;50.396;8.546;2024-02-04T17:06:24;1.20;;;1.10;;
